createdAt,value
2019-03-02T00:00:25.888Z,984.26
2019-03-02T00:01:25.865Z,984.29
2019-03-02T00:02:25.816Z,984.29
2019-03-02T00:03:25.736Z,984.35
2019-03-02T00:04:25.707Z,984.28
2019-03-02T00:05:25.655Z,984.30
2019-03-02T00:06:25.612Z,984.30
2019-03-02T00:07:25.572Z,984.29
2019-03-02T00:08:26.136Z,984.28
2019-03-02T00:09:25.514Z,984.27
2019-03-02T00:10:25.493Z,984.24
2019-03-02T00:11:25.445Z,984.26
2019-03-02T00:12:28.722Z,984.27
2019-03-02T00:13:26.774Z,984.29
2019-03-02T00:14:25.297Z,984.27
2019-03-02T00:15:27.052Z,984.30
2019-03-02T00:16:25.206Z,984.31
2019-03-02T00:17:25.178Z,984.28
2019-03-02T00:18:25.923Z,984.30
2019-03-02T00:19:25.091Z,984.31
2019-03-02T00:20:25.057Z,984.31
2019-03-02T00:21:27.657Z,984.24
2019-03-02T00:22:24.961Z,984.27
2019-03-02T00:23:24.969Z,984.29
2019-03-02T00:24:24.889Z,984.24
2019-03-02T00:25:24.870Z,984.20
2019-03-02T00:26:24.809Z,984.17
2019-03-02T00:27:24.771Z,984.17
2019-03-02T00:28:24.733Z,984.18
2019-03-02T00:29:24.707Z,984.12
2019-03-02T00:30:24.672Z,984.05
2019-03-02T00:31:24.618Z,984.08
2019-03-02T00:32:24.574Z,984.17
2019-03-02T00:33:24.528Z,984.25
2019-03-02T00:34:24.478Z,984.22
2019-03-02T00:35:24.502Z,984.22
2019-03-02T00:36:24.434Z,984.25
2019-03-02T00:37:24.407Z,984.25
2019-03-02T00:38:24.347Z,984.24
2019-03-02T00:39:24.284Z,984.27
2019-03-02T00:40:27.171Z,984.27
2019-03-02T00:41:24.204Z,984.27
2019-03-02T00:42:24.158Z,984.26
2019-03-02T00:43:27.024Z,984.28
2019-03-02T00:44:24.117Z,984.25
2019-03-02T00:45:24.048Z,984.28
2019-03-02T00:46:24.780Z,984.31
2019-03-02T00:47:23.997Z,984.30
2019-03-02T00:48:23.968Z,984.29
2019-03-02T00:49:23.879Z,984.31
2019-03-02T00:50:23.833Z,984.27
2019-03-02T00:51:23.793Z,984.26
2019-03-02T00:52:24.384Z,984.27
2019-03-02T00:53:23.718Z,984.27
2019-03-02T00:54:23.670Z,984.28
2019-03-02T00:55:23.631Z,984.27
2019-03-02T00:56:23.596Z,984.26
2019-03-02T00:57:23.594Z,984.23
2019-03-02T00:58:25.726Z,984.19
2019-03-02T00:59:23.516Z,984.19
2019-03-02T01:00:23.441Z,984.17
2019-03-02T01:01:25.695Z,984.21
2019-03-02T01:02:23.362Z,984.20
2019-03-02T01:03:23.360Z,984.16
2019-03-02T01:04:26.039Z,984.20
2019-03-02T01:05:23.232Z,984.18
2019-03-02T01:06:23.214Z,984.27
2019-03-02T01:07:23.697Z,984.21
2019-03-02T01:08:23.125Z,984.20
2019-03-02T01:09:23.085Z,984.22
2019-03-02T01:10:23.670Z,984.17
2019-03-02T01:11:23.010Z,984.20
2019-03-02T01:12:22.957Z,984.19
2019-03-02T01:13:23.173Z,984.17
2019-03-02T01:14:22.998Z,984.19
2019-03-02T01:15:22.843Z,984.16
2019-03-02T01:16:22.799Z,984.14
2019-03-02T01:17:22.745Z,984.10
2019-03-02T01:18:22.712Z,984.13
2019-03-02T01:19:22.653Z,984.13
2019-03-02T01:20:24.820Z,984.13
2019-03-02T01:21:22.588Z,984.13
2019-03-02T01:22:22.552Z,984.12
2019-03-02T01:23:23.809Z,984.12
2019-03-02T01:24:22.501Z,984.13
2019-03-02T01:25:22.437Z,984.14
2019-03-02T01:26:23.827Z,984.10
2019-03-02T01:27:22.399Z,984.13
2019-03-02T01:28:22.317Z,984.11
2019-03-02T01:29:22.258Z,984.12
2019-03-02T01:30:22.220Z,984.10
2019-03-02T01:31:22.182Z,984.10
2019-03-02T01:32:22.146Z,984.13
2019-03-02T01:33:25.236Z,984.09
2019-03-02T01:34:22.058Z,984.08
2019-03-02T01:35:22.021Z,984.06
2019-03-02T01:36:22.060Z,984.03
2019-03-02T01:37:21.953Z,984.05
2019-03-02T01:38:21.977Z,984.07
2019-03-02T01:39:21.862Z,984.08
2019-03-02T01:40:21.887Z,984.06
2019-03-02T01:41:21.786Z,984.03
2019-03-02T01:42:21.737Z,984.03
2019-03-02T01:43:21.728Z,984.05
2019-03-02T01:44:21.659Z,984.03
2019-03-02T01:45:23.952Z,984.02
2019-03-02T01:46:21.564Z,984.01
2019-03-02T01:47:21.543Z,983.98
2019-03-02T01:48:22.956Z,984.07
2019-03-02T01:49:21.466Z,984.00
2019-03-02T01:50:21.431Z,983.99
2019-03-02T01:51:23.166Z,983.97
2019-03-02T01:52:21.334Z,983.95
2019-03-02T01:53:21.293Z,983.91
2019-03-02T01:54:22.000Z,983.92
2019-03-02T01:55:21.212Z,983.94
2019-03-02T01:56:21.191Z,983.95
2019-03-02T01:57:21.147Z,983.94
2019-03-02T01:58:21.106Z,983.94
2019-03-02T01:59:21.080Z,983.94
2019-03-02T02:00:20.999Z,983.92
2019-03-02T02:01:24.696Z,983.88
2019-03-02T02:02:20.952Z,983.85
2019-03-02T02:03:20.920Z,983.80
2019-03-02T02:04:22.698Z,983.80
2019-03-02T02:05:20.820Z,983.77
2019-03-02T02:06:20.823Z,983.75
2019-03-02T02:07:20.721Z,983.75
2019-03-02T02:08:20.695Z,983.83
2019-03-02T02:09:20.660Z,983.85
2019-03-02T02:10:20.631Z,983.83
2019-03-02T02:11:20.614Z,983.84
2019-03-02T02:12:20.536Z,983.87
2019-03-02T02:13:20.511Z,983.88
2019-03-02T02:14:20.471Z,983.89
2019-03-02T02:15:20.429Z,983.88
2019-03-02T02:16:20.381Z,983.91
2019-03-02T02:17:20.333Z,983.92
2019-03-02T02:18:20.280Z,983.93
2019-03-02T02:19:20.271Z,983.94
2019-03-02T02:20:20.238Z,983.95
2019-03-02T02:21:20.197Z,983.93
2019-03-02T02:22:20.171Z,983.92
2019-03-02T02:23:20.117Z,983.94
2019-03-02T02:24:21.821Z,983.94
2019-03-02T02:25:20.021Z,983.91
2019-03-02T02:26:19.982Z,983.90
2019-03-02T02:27:22.495Z,983.89
2019-03-02T02:28:19.897Z,983.90
2019-03-02T02:29:19.852Z,983.85
2019-03-02T02:30:24.679Z,983.86
2019-03-02T02:31:19.792Z,983.86
2019-03-02T02:32:23.922Z,983.82
2019-03-02T02:33:19.686Z,983.84
2019-03-02T02:34:22.158Z,983.83
2019-03-02T02:35:19.604Z,983.82
2019-03-02T02:36:20.461Z,983.76
2019-03-02T02:37:19.534Z,983.79
2019-03-02T02:38:19.475Z,983.74
2019-03-02T02:39:19.447Z,983.74
2019-03-02T02:40:19.413Z,983.72
2019-03-02T02:41:23.125Z,983.69
2019-03-02T02:42:19.317Z,983.69
2019-03-02T02:43:21.048Z,983.66
2019-03-02T02:44:19.238Z,983.69
2019-03-02T02:45:19.202Z,983.72
2019-03-02T02:46:19.166Z,983.67
2019-03-02T02:47:19.139Z,983.65
2019-03-02T02:48:19.098Z,983.62
2019-03-02T02:49:19.194Z,983.60
2019-03-02T02:50:28.477Z,983.64
2019-03-02T02:51:18.977Z,983.61
2019-03-02T02:52:27.630Z,983.61
2019-03-02T02:53:18.873Z,983.68
2019-03-02T02:54:22.935Z,983.68
2019-03-02T02:55:18.803Z,983.61
2019-03-02T02:56:19.635Z,983.61
2019-03-02T02:57:18.729Z,983.60
2019-03-02T02:58:19.441Z,983.57
2019-03-02T02:59:18.621Z,983.58
2019-03-02T03:00:18.599Z,983.60
2019-03-02T03:01:18.552Z,983.57
2019-03-02T03:02:18.518Z,983.57
2019-03-02T03:03:20.887Z,983.58
2019-03-02T03:04:18.447Z,983.57
2019-03-02T03:05:18.404Z,983.54
2019-03-02T03:06:18.368Z,983.57
2019-03-02T03:07:18.318Z,983.56
2019-03-02T03:08:18.269Z,983.56
2019-03-02T03:09:18.238Z,983.53
2019-03-02T03:10:18.209Z,983.55
2019-03-02T03:11:18.151Z,983.51
2019-03-02T03:12:22.592Z,983.51
2019-03-02T03:13:18.088Z,983.50
2019-03-02T03:14:19.959Z,983.54
2019-03-02T03:15:18.024Z,983.53
2019-03-02T03:16:18.089Z,983.48
2019-03-02T03:17:17.906Z,983.53
2019-03-02T03:18:17.882Z,983.53
2019-03-02T03:19:17.833Z,983.51
2019-03-02T03:20:17.796Z,983.54
2019-03-02T03:21:17.745Z,983.50
2019-03-02T03:22:17.737Z,983.52
2019-03-02T03:23:20.137Z,983.52
2019-03-02T03:24:17.634Z,983.55
2019-03-02T03:25:18.009Z,983.54
2019-03-02T03:26:17.562Z,983.54
2019-03-02T03:27:17.525Z,983.59
2019-03-02T03:28:17.475Z,983.59
2019-03-02T03:29:17.510Z,983.54
2019-03-02T03:30:17.417Z,983.54
2019-03-02T03:31:23.097Z,983.53
2019-03-02T03:32:17.328Z,983.54
2019-03-02T03:33:17.270Z,983.57
2019-03-02T03:34:28.958Z,983.56
2019-03-02T03:35:19.471Z,983.55
2019-03-02T03:36:17.144Z,983.55
2019-03-02T03:37:17.231Z,983.54
2019-03-02T03:38:17.101Z,983.57
2019-03-02T03:39:17.027Z,983.60
2019-03-02T03:40:20.291Z,983.62
2019-03-02T03:41:16.952Z,983.61
2019-03-02T03:42:22.205Z,983.61
2019-03-02T03:43:16.869Z,983.61
2019-03-02T03:44:24.551Z,983.60
2019-03-02T03:45:16.777Z,983.61
2019-03-02T03:46:17.830Z,983.60
2019-03-02T03:47:16.706Z,983.63
2019-03-02T03:48:17.894Z,983.63
2019-03-02T03:49:16.626Z,983.60
2019-03-02T03:50:16.601Z,983.63
2019-03-02T03:51:16.547Z,983.62
2019-03-02T03:52:16.582Z,983.60
2019-03-02T03:53:16.482Z,983.59
2019-03-02T03:54:16.429Z,983.55
2019-03-02T03:55:23.788Z,983.58
2019-03-02T03:56:16.342Z,983.57
2019-03-02T03:57:17.128Z,983.55
2019-03-02T03:58:16.322Z,983.59
2019-03-02T03:59:18.974Z,983.61
2019-03-02T04:00:16.193Z,983.66
2019-03-02T04:01:17.843Z,983.60
2019-03-02T04:02:16.121Z,983.64
2019-03-02T04:03:16.084Z,983.66
2019-03-02T04:04:16.019Z,983.65
2019-03-02T04:05:15.990Z,983.62
2019-03-02T04:06:15.957Z,983.60
2019-03-02T04:07:15.906Z,983.63
2019-03-02T04:08:15.859Z,983.59
2019-03-02T04:09:15.826Z,983.60
2019-03-02T04:10:24.769Z,983.57
2019-03-02T04:11:15.747Z,983.58
2019-03-02T04:12:19.860Z,983.60
2019-03-02T04:13:15.658Z,983.58
2019-03-02T04:14:19.162Z,983.59
2019-03-02T04:15:15.603Z,983.57
2019-03-02T04:16:16.139Z,983.56
2019-03-02T04:17:15.516Z,983.55
2019-03-02T04:18:16.324Z,983.59
2019-03-02T04:19:15.424Z,983.60
2019-03-02T04:20:15.463Z,983.57
2019-03-02T04:21:15.334Z,983.60
2019-03-02T04:22:15.311Z,983.56
2019-03-02T04:23:18.014Z,983.59
2019-03-02T04:24:15.241Z,983.59
2019-03-02T04:25:17.995Z,983.53
2019-03-02T04:26:15.134Z,983.54
2019-03-02T04:27:16.832Z,983.54
2019-03-02T04:28:15.060Z,983.54
2019-03-02T04:29:15.024Z,983.51
2019-03-02T04:30:14.982Z,983.49
2019-03-02T04:31:14.927Z,983.45
2019-03-02T04:32:14.886Z,983.43
2019-03-02T04:33:14.865Z,983.44
2019-03-02T04:34:20.168Z,983.42
2019-03-02T04:35:14.768Z,983.45
2019-03-02T04:36:14.734Z,983.42
2019-03-02T04:37:14.687Z,983.42
2019-03-02T04:38:14.657Z,983.43
2019-03-02T04:39:15.062Z,983.41
2019-03-02T04:40:14.592Z,983.41
2019-03-02T04:41:14.527Z,983.36
2019-03-02T04:42:14.661Z,983.41
2019-03-02T04:43:14.447Z,983.39
2019-03-02T04:44:14.415Z,983.38
2019-03-02T04:45:14.370Z,983.38
2019-03-02T04:46:15.384Z,983.41
2019-03-02T04:47:14.289Z,983.42
2019-03-02T04:48:14.316Z,983.45
2019-03-02T04:49:14.583Z,983.44
2019-03-02T04:50:14.203Z,983.47
2019-03-02T04:51:14.128Z,983.45
2019-03-02T04:52:14.525Z,983.46
2019-03-02T04:53:14.079Z,983.47
2019-03-02T04:54:14.014Z,983.47
2019-03-02T04:55:14.810Z,983.45
2019-03-02T04:56:13.926Z,983.44
2019-03-02T04:57:13.893Z,983.46
2019-03-02T04:58:13.842Z,983.41
2019-03-02T04:59:13.810Z,983.40
2019-03-02T05:00:13.774Z,983.39
2019-03-02T05:01:13.732Z,983.43
2019-03-02T05:02:16.701Z,983.41
2019-03-02T05:03:13.675Z,983.43
2019-03-02T05:04:13.615Z,983.44
2019-03-02T05:05:13.562Z,983.46
2019-03-02T05:06:15.687Z,983.47
2019-03-02T05:07:13.489Z,983.43
2019-03-02T05:08:13.462Z,983.47
2019-03-02T05:09:13.644Z,983.44
2019-03-02T05:10:13.390Z,983.49
2019-03-02T05:11:13.305Z,983.46
2019-03-02T05:12:14.675Z,983.49
2019-03-02T05:13:13.233Z,983.48
2019-03-02T05:14:13.199Z,983.49
2019-03-02T05:15:16.051Z,983.48
2019-03-02T05:16:13.126Z,983.51
2019-03-02T05:17:13.061Z,983.50
2019-03-02T05:18:14.787Z,983.50
2019-03-02T05:19:13.001Z,983.48
2019-03-02T05:20:13.022Z,983.48
2019-03-02T05:21:12.905Z,983.48
2019-03-02T05:22:15.475Z,983.50
2019-03-02T05:23:12.858Z,983.45
2019-03-02T05:24:12.791Z,983.50
2019-03-02T05:25:15.669Z,983.51
2019-03-02T05:26:12.702Z,983.49
2019-03-02T05:27:12.683Z,983.53
2019-03-02T05:28:12.618Z,983.51
2019-03-02T05:29:14.889Z,983.51
2019-03-02T05:30:12.576Z,983.51
2019-03-02T05:31:13.861Z,983.52
2019-03-02T05:32:15.598Z,983.51
2019-03-02T05:33:12.453Z,983.52
2019-03-02T05:34:12.393Z,983.57
2019-03-02T05:35:15.568Z,983.54
2019-03-02T05:36:12.320Z,983.51
2019-03-02T05:37:12.278Z,983.49
2019-03-02T05:38:15.172Z,983.50
2019-03-02T05:39:13.929Z,983.50
2019-03-02T05:40:12.142Z,983.48
2019-03-02T05:41:12.110Z,983.48
2019-03-02T05:42:13.621Z,983.51
2019-03-02T05:43:12.018Z,983.51
2019-03-02T05:44:12.019Z,983.51
2019-03-02T05:45:11.997Z,983.54
2019-03-02T05:46:11.907Z,983.54
2019-03-02T05:47:11.863Z,983.52
2019-03-02T05:48:11.826Z,983.53
2019-03-02T05:49:11.820Z,983.55
2019-03-02T05:50:11.748Z,983.54
2019-03-02T05:51:11.695Z,983.57
2019-03-02T05:52:14.557Z,983.58
2019-03-02T05:53:11.623Z,983.57
2019-03-02T05:54:11.579Z,983.59
2019-03-02T05:55:14.240Z,983.60
2019-03-02T05:56:11.498Z,983.57
2019-03-02T05:57:11.461Z,983.54
2019-03-02T05:58:12.512Z,983.59
2019-03-02T05:59:11.400Z,983.56
2019-03-02T06:00:11.342Z,983.54
2019-03-02T06:01:11.317Z,983.53
2019-03-02T06:02:13.920Z,983.55
2019-03-02T06:03:11.237Z,983.55
2019-03-02T06:04:11.206Z,983.54
2019-03-02T06:05:11.234Z,983.58
2019-03-02T06:06:11.126Z,983.52
2019-03-02T06:07:11.062Z,983.55
2019-03-02T06:08:11.042Z,983.55
2019-03-02T06:09:13.982Z,983.57
2019-03-02T06:10:10.931Z,983.55
2019-03-02T06:11:10.901Z,983.56
2019-03-02T06:12:11.940Z,983.51
2019-03-02T06:13:10.819Z,983.51
2019-03-02T06:14:10.779Z,983.53
2019-03-02T06:15:10.766Z,983.52
2019-03-02T06:16:10.699Z,983.56
2019-03-02T06:17:10.672Z,983.53
2019-03-02T06:18:10.624Z,983.54
2019-03-02T06:19:10.577Z,983.57
2019-03-02T06:20:10.532Z,983.53
2019-03-02T06:21:10.855Z,983.61
2019-03-02T06:22:10.453Z,983.63
2019-03-02T06:23:10.535Z,983.59
2019-03-02T06:24:10.379Z,983.58
2019-03-02T06:25:19.519Z,983.58
2019-03-02T06:26:10.374Z,983.60
2019-03-02T06:27:10.886Z,983.60
2019-03-02T06:28:10.222Z,983.61
2019-03-02T06:29:10.204Z,983.61
2019-03-02T06:30:10.129Z,983.61
2019-03-02T06:31:10.095Z,983.62
2019-03-02T06:32:10.046Z,983.65
2019-03-02T06:33:10.000Z,983.62
2019-03-02T06:34:09.963Z,983.64
2019-03-02T06:35:09.943Z,983.62
2019-03-02T06:36:10.177Z,983.67
2019-03-02T06:37:09.868Z,983.63
2019-03-02T06:38:09.815Z,983.66
2019-03-02T06:39:09.777Z,983.64
2019-03-02T06:40:09.755Z,983.63
2019-03-02T06:41:09.689Z,983.59
2019-03-02T06:42:09.976Z,983.63
2019-03-02T06:43:09.623Z,983.60
2019-03-02T06:44:09.667Z,983.57
2019-03-02T06:45:10.099Z,983.59
2019-03-02T06:46:09.481Z,983.52
2019-03-02T06:47:09.454Z,983.55
2019-03-02T06:48:09.722Z,983.54
2019-03-02T06:49:09.370Z,983.57
2019-03-02T06:50:09.372Z,983.60
2019-03-02T06:51:11.217Z,983.60
2019-03-02T06:52:09.254Z,983.64
2019-03-02T06:53:09.193Z,983.65
2019-03-02T06:54:12.860Z,983.61
2019-03-02T06:55:09.132Z,983.64
2019-03-02T06:56:09.104Z,983.67
2019-03-02T06:57:10.749Z,983.63
2019-03-02T06:58:08.992Z,983.64
2019-03-02T06:59:08.958Z,983.64
2019-03-02T07:00:10.645Z,983.60
2019-03-02T07:01:09.001Z,983.63
2019-03-02T07:02:08.863Z,983.59
2019-03-02T07:03:10.157Z,983.62
2019-03-02T07:04:10.746Z,983.62
2019-03-02T07:05:08.732Z,983.62
2019-03-02T07:06:11.585Z,983.58
2019-03-02T07:07:08.647Z,983.59
2019-03-02T07:08:08.603Z,983.54
2019-03-02T07:09:09.629Z,983.51
2019-03-02T07:10:08.524Z,983.53
2019-03-02T07:11:08.483Z,983.53
2019-03-02T07:12:09.437Z,983.55
2019-03-02T07:13:08.404Z,983.53
2019-03-02T07:14:08.375Z,983.55
2019-03-02T07:15:09.244Z,983.55
2019-03-02T07:16:08.321Z,983.54
2019-03-02T07:17:08.235Z,983.54
2019-03-02T07:18:08.237Z,983.61
2019-03-02T07:19:08.161Z,983.57
2019-03-02T07:20:08.111Z,983.63
2019-03-02T07:21:08.084Z,983.60
2019-03-02T07:22:08.032Z,983.61
2019-03-02T07:23:08.017Z,983.59
2019-03-02T07:24:07.964Z,983.57
2019-03-02T07:25:07.924Z,983.55
2019-03-02T07:26:07.885Z,983.56
2019-03-02T07:27:07.864Z,983.54
2019-03-02T07:28:07.799Z,983.56
2019-03-02T07:29:07.765Z,983.58
2019-03-02T07:30:07.712Z,983.59
2019-03-02T07:31:07.747Z,983.61
2019-03-02T07:32:07.654Z,983.61
2019-03-02T07:33:07.881Z,983.55
2019-03-02T07:34:08.744Z,983.56
2019-03-02T07:35:07.533Z,983.52
2019-03-02T07:36:07.478Z,983.55
2019-03-02T07:37:09.158Z,983.53
2019-03-02T07:38:08.432Z,983.55
2019-03-02T07:39:07.385Z,983.55
2019-03-02T07:40:09.129Z,983.53
2019-03-02T07:41:07.804Z,983.55
2019-03-02T07:42:07.246Z,983.55
2019-03-02T07:43:09.724Z,983.55
2019-03-02T07:44:07.173Z,983.61
2019-03-02T07:45:07.131Z,983.62
2019-03-02T07:46:08.044Z,983.63
2019-03-02T07:47:07.059Z,983.65
2019-03-02T07:48:07.008Z,983.61
2019-03-02T07:49:09.158Z,983.62
2019-03-02T07:50:06.922Z,983.60
2019-03-02T07:51:06.886Z,983.63
2019-03-02T07:52:06.840Z,983.66
2019-03-02T07:53:06.808Z,983.65
2019-03-02T07:54:07.357Z,983.62
2019-03-02T07:55:06.762Z,983.60
2019-03-02T07:56:06.795Z,983.60
2019-03-02T07:57:08.766Z,983.59
2019-03-02T07:58:06.618Z,983.63
2019-03-02T07:59:06.580Z,983.63
2019-03-02T08:00:06.697Z,983.61
2019-03-02T08:01:06.488Z,983.60
2019-03-02T08:02:07.373Z,983.60
2019-03-02T08:03:06.416Z,983.60
2019-03-02T08:04:06.403Z,983.63
2019-03-02T08:05:06.325Z,983.62
2019-03-02T08:06:06.343Z,983.64
2019-03-02T08:07:06.244Z,983.64
2019-03-02T08:08:07.057Z,983.65
2019-03-02T08:09:06.190Z,983.64
2019-03-02T08:10:06.130Z,983.62
2019-03-02T08:11:06.186Z,983.65
2019-03-02T08:12:06.049Z,983.68
2019-03-02T08:13:06.025Z,983.69
2019-03-02T08:14:08.896Z,983.74
2019-03-02T08:15:05.935Z,983.78
2019-03-02T08:16:05.919Z,983.76
2019-03-02T08:17:05.839Z,983.71
2019-03-02T08:18:05.815Z,983.69
2019-03-02T08:19:05.778Z,983.69
2019-03-02T08:20:05.836Z,983.69
2019-03-02T08:21:05.716Z,983.70
2019-03-02T08:22:07.832Z,983.66
2019-03-02T08:23:05.607Z,983.70
2019-03-02T08:24:05.584Z,983.71
2019-03-02T08:25:05.533Z,983.70
2019-03-02T08:26:14.806Z,983.71
2019-03-02T08:28:00.064Z,983.73
2019-03-02T08:28:59.481Z,983.71
2019-03-02T08:30:51.887Z,983.74
2019-03-02T08:31:51.837Z,983.75
2019-03-02T08:33:46.040Z,983.75
2019-03-02T08:34:46.372Z,983.73
2019-03-02T08:36:38.697Z,983.76
2019-03-02T08:37:38.352Z,983.81
2019-03-02T08:39:31.308Z,983.76
2019-03-02T08:40:30.672Z,983.75
2019-03-02T08:42:24.868Z,983.73
2019-03-02T08:43:23.772Z,983.72
2019-03-02T08:45:17.852Z,983.66
2019-03-02T08:46:16.666Z,983.68
2019-03-02T08:48:10.144Z,983.67
2019-03-02T08:49:10.978Z,983.62
2019-03-02T08:51:05.898Z,983.61
2019-03-02T08:52:03.858Z,983.65
2019-03-02T08:53:58.794Z,983.54
2019-03-02T08:54:58.319Z,983.54
2019-03-02T08:56:51.361Z,983.57
2019-03-02T08:57:49.883Z,983.54
2019-03-02T08:59:44.338Z,983.47
2019-03-02T09:00:43.230Z,983.47
2019-03-02T09:02:37.586Z,983.47
2019-03-02T09:03:37.184Z,983.47
2019-03-02T09:05:43.362Z,983.43
2019-03-02T09:06:30.847Z,983.44
2019-03-02T09:08:23.151Z,983.46
2019-03-02T09:09:22.786Z,983.45
2019-03-02T09:11:16.286Z,983.49
2019-03-02T09:12:17.904Z,983.47
2019-03-02T09:14:12.391Z,983.41
2019-03-02T09:15:08.212Z,983.46
2019-03-02T09:17:02.997Z,983.39
2019-03-02T09:18:01.756Z,983.36
2019-03-02T09:19:59.573Z,983.36
2019-03-02T09:20:55.152Z,983.38
2019-03-02T09:22:48.517Z,983.39
2019-03-02T09:23:47.015Z,983.40
2019-03-02T09:25:41.244Z,983.40
2019-03-02T09:26:40.108Z,983.45
2019-03-02T09:28:35.915Z,983.43
2019-03-02T09:29:34.828Z,983.45
2019-03-02T09:31:28.657Z,983.42
2019-03-02T09:32:29.409Z,983.42
2019-03-02T09:34:21.628Z,983.44
2019-03-02T09:35:20.951Z,983.44
2019-03-02T09:37:16.195Z,983.49
2019-03-02T09:38:16.966Z,983.46
2019-03-02T09:40:10.113Z,983.48
2019-03-02T09:41:11.643Z,983.49
2019-03-02T09:43:03.040Z,983.44
2019-03-02T09:44:02.402Z,983.45
2019-03-02T09:45:57.047Z,983.43
2019-03-02T09:46:56.955Z,983.42
2019-03-02T09:48:50.054Z,983.45
2019-03-02T09:49:48.698Z,983.46
2019-03-02T09:51:48.141Z,983.42
2019-03-02T09:52:45.905Z,983.39
2019-03-02T09:54:38.829Z,983.43
2019-03-02T09:55:37.991Z,983.42
2019-03-02T09:57:47.472Z,983.46
2019-03-02T09:58:44.429Z,983.46
2019-03-02T10:00:40.196Z,983.43
2019-03-02T10:01:39.222Z,983.44
2019-03-02T10:03:33.255Z,983.46
2019-03-02T10:04:35.855Z,983.43
2019-03-02T10:06:28.863Z,983.48
2019-03-02T10:07:27.646Z,983.46
2019-03-02T10:10:20.528Z,983.48
2019-03-02T10:12:16.672Z,983.41
2019-03-02T10:15:30.698Z,983.45
2019-03-02T10:16:20.442Z,983.40
2019-03-02T10:18:19.760Z,983.38
2019-03-02T10:19:19.412Z,983.35
2019-03-02T10:23:32.479Z,983.19
2019-03-02T10:24:31.387Z,983.19
2019-03-02T10:26:26.736Z,983.21
2019-03-02T10:27:25.423Z,983.29
2019-03-02T10:29:21.682Z,983.30
2019-03-02T10:30:22.218Z,983.30
2019-03-02T10:32:17.233Z,983.33
2019-03-02T10:35:09.051Z,983.33
2019-03-02T10:36:09.929Z,983.33
2019-03-02T10:38:02.873Z,983.35
2019-03-02T10:39:01.335Z,983.34
2019-03-02T10:40:56.669Z,983.31
2019-03-02T10:42:00.457Z,983.34
2019-03-02T10:43:49.988Z,983.37
2019-03-02T10:44:49.993Z,983.30
2019-03-02T10:46:44.591Z,983.33
2019-03-02T10:47:42.509Z,983.33
2019-03-02T10:49:38.376Z,983.33
2019-03-02T10:50:36.410Z,983.35
2019-03-02T10:52:40.663Z,983.31
2019-03-02T10:53:31.359Z,983.29
2019-03-02T10:55:24.877Z,983.33
2019-03-02T10:56:24.804Z,983.36
2019-03-02T10:58:17.011Z,983.32
2019-03-02T10:59:17.409Z,983.33
2019-03-02T11:01:13.060Z,983.33
2019-03-02T11:02:11.955Z,983.35
2019-03-02T11:04:04.961Z,983.30
2019-03-02T11:05:04.727Z,983.31
2019-03-02T11:06:57.462Z,983.25
2019-03-02T11:07:57.925Z,983.24
2019-03-02T11:09:54.999Z,983.19
2019-03-02T11:10:54.076Z,983.20
2019-03-02T11:12:47.425Z,983.20
2019-03-02T11:13:46.846Z,983.16
2019-03-02T11:15:43.417Z,983.13
2019-03-02T11:16:41.047Z,983.18
2019-03-02T11:18:45.036Z,983.11
2019-03-02T11:19:47.422Z,983.15
2019-03-02T11:21:40.054Z,983.07
2019-03-02T11:22:39.935Z,983.05
2019-03-02T11:24:32.462Z,983.06
2019-03-02T11:25:32.681Z,983.04
2019-03-02T11:27:26.025Z,983.03
2019-03-02T11:28:25.298Z,983.05
2019-03-02T11:30:19.338Z,983.01
2019-03-02T11:31:19.103Z,982.99
2019-03-02T11:33:13.493Z,982.98
2019-03-02T11:34:12.110Z,983.01
2019-03-02T11:36:10.637Z,983.01
2019-03-02T11:37:06.815Z,982.97
2019-03-02T11:39:01.227Z,982.99
2019-03-02T11:40:00.770Z,983.01
2019-03-02T11:41:55.564Z,982.95
2019-03-02T11:42:54.777Z,982.98
2019-03-02T11:44:48.066Z,982.94
2019-03-02T11:45:47.030Z,982.92
2019-03-02T11:47:41.804Z,982.91
2019-03-02T11:48:41.658Z,982.92
2019-03-02T11:50:35.766Z,982.89
2019-03-02T11:51:35.583Z,982.88
2019-03-02T11:53:29.204Z,982.90
2019-03-02T11:54:29.683Z,982.90
2019-03-02T11:56:26.586Z,982.84
2019-03-02T11:57:21.213Z,982.88
2019-03-02T11:59:15.108Z,982.88
2019-03-02T12:00:13.873Z,982.85
2019-03-02T12:02:15.412Z,982.88
2019-03-02T12:03:07.356Z,982.88
2019-03-02T12:05:00.437Z,982.82
2019-03-02T12:06:05.105Z,982.81
2019-03-02T12:07:53.541Z,982.80
2019-03-02T12:08:54.924Z,982.79
2019-03-02T12:10:46.974Z,982.77
2019-03-02T12:11:46.854Z,982.76
2019-03-02T12:13:53.581Z,982.73
2019-03-02T12:14:51.889Z,982.72
2019-03-02T12:16:45.775Z,982.67
2019-03-02T12:17:44.716Z,982.67
2019-03-02T12:19:39.996Z,982.65
2019-03-02T12:20:41.266Z,982.61
2019-03-02T12:22:34.389Z,982.65
2019-03-02T12:23:34.041Z,982.61
2019-03-02T12:25:30.964Z,982.53
2019-03-02T12:26:27.294Z,982.54
2019-03-02T12:28:21.888Z,982.58
2019-03-02T12:29:20.341Z,982.54
2019-03-02T12:31:14.929Z,982.53
2019-03-02T12:32:14.678Z,982.54
2019-03-02T12:34:08.925Z,982.52
2019-03-02T12:35:09.969Z,982.50
2019-03-02T12:37:03.380Z,982.50
2019-03-02T12:38:02.616Z,982.49
2019-03-02T12:40:02.775Z,982.45
2019-03-02T12:40:56.197Z,982.47
2019-03-02T12:42:51.350Z,982.42
2019-03-02T12:43:49.600Z,982.45
2019-03-02T12:45:43.817Z,982.46
2019-03-02T12:46:43.042Z,982.45
2019-03-02T12:48:37.134Z,982.39
2019-03-02T12:49:36.899Z,982.37
2019-03-02T12:51:30.262Z,982.39
2019-03-02T12:52:29.448Z,982.37
2019-03-02T12:54:24.837Z,982.36
2019-03-02T12:55:24.043Z,982.35
2019-03-02T12:57:17.879Z,982.33
2019-03-02T12:58:20.030Z,982.36
2019-03-02T13:00:11.708Z,982.32
2019-03-02T13:01:11.232Z,982.32
2019-03-02T13:03:04.171Z,982.30
2019-03-02T13:04:05.610Z,982.31
2019-03-02T13:05:58.801Z,982.32
2019-03-02T13:06:57.257Z,982.27
2019-03-02T13:08:52.745Z,982.27
2019-03-02T13:09:51.428Z,982.29
2019-03-02T13:11:45.384Z,982.26
2019-03-02T13:12:45.930Z,982.22
2019-03-02T13:14:38.754Z,982.18
2019-03-02T13:15:37.822Z,982.18
2019-03-02T13:17:33.048Z,982.20
2019-03-02T13:18:31.037Z,982.16
2019-03-02T13:20:25.149Z,982.16
2019-03-02T13:21:24.148Z,982.12
2019-03-02T13:23:17.955Z,982.14
2019-03-02T13:24:19.154Z,982.14
2019-03-02T13:26:13.667Z,982.10
2019-03-02T13:27:11.869Z,982.09
2019-03-02T13:29:05.779Z,982.04
2019-03-02T13:30:05.057Z,982.05
2019-03-02T13:31:58.697Z,982.06
2019-03-02T13:32:58.066Z,982.10
2019-03-02T13:34:51.148Z,982.11
2019-03-02T13:35:59.924Z,982.10
2019-03-02T13:37:45.648Z,982.09
2019-03-02T13:38:45.028Z,982.15
2019-03-02T13:40:40.102Z,982.08
2019-03-02T13:41:38.849Z,982.09
2019-03-02T13:43:35.377Z,982.03
2019-03-02T13:44:38.780Z,982.05
2019-03-02T13:46:31.166Z,982.06
2019-03-02T13:47:29.303Z,982.02
2019-03-02T13:49:23.703Z,982.00
2019-03-02T13:50:23.988Z,981.95
2019-03-02T13:52:29.161Z,981.97
2019-03-02T13:53:27.835Z,981.98
2019-03-02T13:55:23.843Z,981.90
2019-03-02T13:56:26.318Z,981.88
2019-03-02T13:58:18.030Z,981.92
2019-03-02T13:59:15.353Z,981.88
2019-03-02T14:01:08.910Z,981.89
2019-03-02T14:02:08.254Z,981.83
2019-03-02T14:04:01.996Z,981.85
2019-03-02T14:05:05.715Z,981.82
2019-03-02T14:06:57.951Z,981.81
2019-03-02T14:07:55.773Z,981.80
2019-03-02T14:09:49.718Z,981.80
2019-03-02T14:10:48.269Z,981.82
2019-03-02T14:12:43.456Z,981.79
2019-03-02T14:13:43.611Z,981.76
2019-03-02T14:15:36.326Z,981.77
2019-03-02T14:16:36.248Z,981.75
2019-03-02T14:18:29.880Z,981.73
2019-03-02T14:19:29.232Z,981.72
2019-03-02T14:21:22.283Z,981.74
2019-03-02T14:22:22.661Z,981.74
2019-03-02T14:24:15.590Z,981.69